Skip Navigation LinksHome page > Weather > Current weather Skip Navigation Links

Current Weather

Dutchess County, Poughkeepsie, N.Y.

For information only: do not use for flight planning or navigation.
Latest weather
Observation time Saturday, July 11, 2020 9:53 PM EDT
Local time Saturday, July 11, 2020 10:58 PM EDT
Flight conditions Visual Meteorological Conditions
Winds
Wind direction South-Southeast (150°)
Wind speed 5 mph
Visibility 10 mi.
Sky condition
Ceiling unlimited
Sky clear
Temperature 73°F
Dewpoint 70°F
Altimeter 29.63 in.Hg
Derived measurements
Relative humidity 90%
Density altitude 1744 ft.
Sea-level pressure 29.62 in.Hg
Remarks
Fully automated report.
Automated weather observing station with precipitation discriminator.
METAR KPOU 120153Z AUTO 15004KT 10SM CLR 23/21 A2963 RMK AO2 SLP030 T02280211

Settings

Location code

InnerDrive.Weather 4.0.6770.0 Release CLR 4.0.30319.42000
Copyright ©2018 Inner Drive Technology. All rights reserved. Portions Copyright ©1986-2018 David Braverman.

Find weather

Site navigation


Skip Navigation Links

Place info

Page info

PayPal - The safer, easier way to pay online!

Return home.

Copyright ©2020 Inner Drive Technology. Purveyors of fine, hand-crafted computer software. Page printed 2020-07-12T02:58:15 UTC.